Time;durP1;ratioP1;P1;durP2;ratioP2;P2;SDS_P1;SDS_P2;PMS_P1;PMS_P2;Temp;Humidity;BMP_temperature;BMP_pressure;BME280_temperature;BME280_humidity;BME280_pressure;Samples;Min_cycle;Max_cycle;Signal;HPM_P1;HPM_P2
2022/08/16 00:02:17;;;;;;;4.37;2.20;;;;;;;;;;4975022;28;20531;-83
2022/08/16 00:05:24;;;;;;;3.07;2.20;;;;;;;;;;4968111;28;20179;-83
2022/08/16 00:08:28;;;;;;;4.93;2.20;;;;;;;;;;4968316;28;20194;-83
2022/08/16 00:11:33;;;;;;;3.70;2.30;;;;;;;;;;4968197;28;20222;-83
2022/08/16 00:14:37;;;;;;;2.73;2.10;;;;;;;;;;4957358;28;20187;-83
2022/08/16 00:17:41;;;;;;;3.03;2.40;;;;;;;;;;4976497;28;20179;-84
2022/08/16 00:20:47;;;;;;;2.67;2.27;;;;;;;;;;4970099;28;20210;-84
2022/08/16 00:23:51;;;;;;;2.50;2.23;;;;;;;;;;4959090;28;20182;-84
2022/08/16 00:26:55;;;;;;;4.50;2.23;;;;;;;;;;4969967;28;20212;-84
2022/08/16 00:30:00;;;;;;;2.40;2.10;;;;;;;;;;4975271;28;20222;-84
2022/08/16 00:33:04;;;;;;;2.90;2.50;;;;;;;;;;4975742;28;20542;-84
2022/08/16 00:36:08;;;;;;;2.53;2.23;;;;;;;;;;4976381;28;20187;-84
2022/08/16 00:39:15;;;;;;;2.60;2.10;;;;;;;;;;4976105;28;20187;-84
2022/08/16 00:42:20;;;;;;;4.13;2.27;;;;;;;;;;5043669;23;20236;-83
2022/08/16 00:45:38;;;;;;;3.03;2.10;;;;;;;;;;5027385;28;20173;-82
2022/08/16 00:48:44;;;;;;;3.70;2.30;;;;;;;;;;5027418;28;20181;-81
2022/08/16 00:51:49;;;;;;;3.73;2.10;;;;;;;;;;5029794;28;20688;-82
2022/08/16 00:54:53;;;;;;;4.23;2.40;;;;;;;;;;5018076;28;20201;-82
2022/08/16 00:57:58;;;;;;;4.00;2.23;;;;;;;;;;5018057;28;20201;-82
2022/08/16 01:01:04;;;;;;;4.67;2.17;;;;;;;;;;4995980;28;20181;-82
2022/08/16 01:04:09;;;;;;;4.77;2.80;;;;;;;;;;5018195;28;20200;-82
2022/08/16 01:07:14;;;;;;;3.03;2.20;;;;;;;;;;5029782;28;20177;-82
2022/08/16 01:10:22;;;;;;;4.90;2.67;;;;;;;;;;5018026;28;20198;-81
2022/08/16 01:13:29;;;;;;;2.40;2.20;;;;;;;;;;5017372;28;20205;-82
2022/08/16 01:16:34;;;;;;;2.90;2.60;;;;;;;;;;5018560;28;20177;-84
2022/08/16 01:19:43;;;;;;;3.10;2.30;;;;;;;;;;5017991;28;20182;-85
2022/08/16 01:22:58;;;;;;;2.93;2.47;;;;;;;;;;5017544;28;20213;-84
2022/08/16 01:26:03;;;;;;;3.20;2.20;;;;;;;;;;5006261;28;20193;-84
2022/08/16 01:29:12;;;;;;;2.80;2.30;;;;;;;;;;5006170;28;20181;-84
2022/08/16 01:32:17;;;;;;;4.07;2.10;;;;;;;;;;5007229;28;20692;-84
2022/08/16 01:35:31;;;;;;;6.10;2.43;;;;;;;;;;5006770;28;20182;-85
2022/08/16 01:38:39;;;;;;;4.53;2.27;;;;;;;;;;5017211;28;20190;-82
2022/08/16 01:41:44;;;;;;;4.90;2.20;;;;;;;;;;5006392;28;20213;-85
2022/08/16 01:44:48;;;;;;;2.57;2.33;;;;;;;;;;5007281;28;20178;-85
2022/08/16 01:47:52;;;;;;;2.77;2.17;;;;;;;;;;5017957;28;20177;-82
2022/08/16 01:51:00;;;;;;;6.30;2.70;;;;;;;;;;5016865;28;20186;-84
2022/08/16 01:54:05;;;;;;;3.60;2.77;;;;;;;;;;5018893;28;20668;-82
2022/08/16 01:57:12;;;;;;;2.67;2.33;;;;;;;;;;5037011;28;20181;-82
2022/08/16 02:00:18;;;;;;;3.80;2.70;;;;;;;;;;4985393;28;20190;-84
2022/08/16 02:03:23;;;;;;;3.53;2.40;;;;;;;;;;4985620;28;20171;-84
2022/08/16 02:06:27;;;;;;;3.80;2.43;;;;;;;;;;4986575;28;20640;-84
2022/08/16 02:09:32;;;;;;;3.13;2.50;;;;;;;;;;4975193;28;20186;-84
2022/08/16 02:12:37;;;;;;;2.77;2.40;;;;;;;;;;4975165;28;20226;-84
2022/08/16 02:15:41;;;;;;;3.43;2.37;;;;;;;;;;4996937;28;20661;-84
2022/08/16 02:18:46;;;;;;;2.00;1.90;;;;;;;;;;4974232;28;20202;-84
2022/08/16 02:21:54;;;;;;;2.50;2.20;;;;;;;;;;4985455;28;20222;-84
2022/08/16 02:24:58;;;;;;;3.73;2.40;;;;;;;;;;4973643;28;20530;-83
2022/08/16 02:28:02;;;;;;;2.13;1.93;;;;;;;;;;4995951;28;20202;-82
2022/08/16 02:31:10;;;;;;;2.70;2.50;;;;;;;;;;4996765;28;20217;-82
2022/08/16 02:34:16;;;;;;;3.27;2.20;;;;;;;;;;4985663;28;20178;-82
2022/08/16 02:37:20;;;;;;;3.40;2.17;;;;;;;;;;4989084;28;20532;-83
2022/08/16 02:40:24;;;;;;;3.50;2.40;;;;;;;;;;4997126;28;20190;-82
2022/08/16 02:43:32;;;;;;;3.60;2.40;;;;;;;;;;4996862;28;20179;-83
2022/08/16 02:46:36;;;;;;;4.03;2.20;;;;;;;;;;4985127;28;20186;-83
2022/08/16 02:49:42;;;;;;;2.77;2.57;;;;;;;;;;5007352;28;20183;-82
2022/08/16 02:52:46;;;;;;;2.50;2.30;;;;;;;;;;5006783;28;20225;-82
2022/08/16 02:55:51;;;;;;;3.20;2.30;;;;;;;;;;5006819;28;20648;-83
2022/08/16 02:58:55;;;;;;;4.97;2.60;;;;;;;;;;5006884;28;20183;-83
2022/08/16 03:02:00;;;;;;;3.37;2.47;;;;;;;;;;4995622;28;20217;-82
2022/08/16 03:05:10;;;;;;;11.93;2.50;;;;;;;;;;4996424;28;20179;-82
2022/08/16 03:08:14;;;;;;;11.67;2.57;;;;;;;;;;5007235;28;20174;-82
2022/08/16 03:11:21;;;;;;;9.27;2.97;;;;;;;;;;5007333;28;20689;-82
2022/08/16 03:14:26;;;;;;;5.67;2.70;;;;;;;;;;5007249;28;20522;-82
2022/08/16 03:17:36;;;;;;;3.60;2.20;;;;;;;;;;4996180;28;20277;-83
2022/08/16 03:20:41;;;;;;;2.20;1.97;;;;;;;;;;5007180;28;20194;-83
2022/08/16 03:23:47;;;;;;;2.80;2.10;;;;;;;;;;5006517;28;20198;-82
2022/08/16 03:26:52;;;;;;;2.50;2.27;;;;;;;;;;4995507;28;20190;-82
2022/08/16 03:29:56;;;;;;;3.57;2.27;;;;;;;;;;4995255;28;20200;-83
2022/08/16 03:33:03;;;;;;;3.63;2.43;;;;;;;;;;4995149;28;20569;-82
2022/08/16 03:36:12;;;;;;;3.23;2.43;;;;;;;;;;4983376;28;20186;-84
2022/08/16 03:39:19;;;;;;;4.27;2.60;;;;;;;;;;4995049;28;20186;-84
2022/08/16 03:42:23;;;;;;;4.57;2.50;;;;;;;;;;5005688;28;20226;-84
2022/08/16 03:45:27;;;;;;;3.17;2.37;;;;;;;;;;4983807;28;20657;-84
2022/08/16 03:48:35;;;;;;;3.63;2.47;;;;;;;;;;4994670;28;20633;-84
2022/08/16 03:51:43;;;;;;;4.73;2.43;;;;;;;;;;4995111;28;20222;-84
2022/08/16 03:54:54;;;;;;;2.83;2.53;;;;;;;;;;5005182;28;20178;-84
2022/08/16 03:57:59;;;;;;;3.10;2.13;;;;;;;;;;4994780;28;20526;-84
2022/08/16 04:01:04;;;;;;;4.90;2.73;;;;;;;;;;4995003;28;20194;-83
2022/08/16 04:04:09;;;;;;;2.23;2.03;;;;;;;;;;4982544;28;20193;-89
2022/08/16 04:07:14;;;;;;;3.50;2.90;;;;;;;;;;4971299;28;20178;-89
2022/08/16 04:10:18;;;;;;;10.70;3.63;;;;;;;;;;4982271;28;20638;-89
2022/08/16 04:13:22;;;;;;;2.67;2.40;;;;;;;;;;4976013;28;20210;-89
2022/08/16 04:16:27;;;;;;;2.53;2.33;;;;;;;;;;5020970;28;20177;-89
2022/08/16 04:19:34;;;;;;;4.43;2.30;;;;;;;;;;5033133;28;20181;-89
2022/08/16 04:22:39;;;;;;;2.60;2.40;;;;;;;;;;5021284;28;20204;-89
2022/08/16 04:25:43;;;;;;;2.67;2.00;;;;;;;;;;5021597;28;20173;-89
2022/08/16 04:28:47;;;;;;;2.97;2.47;;;;;;;;;;5021459;28;20185;-89
2022/08/16 04:31:53;;;;;;;3.27;2.60;;;;;;;;;;5001680;28;20217;-90
2022/08/16 04:34:59;;;;;;;3.43;2.40;;;;;;;;;;5012637;28;20177;-89
2022/08/16 04:38:04;;;;;;;4.07;2.07;;;;;;;;;;5001550;28;20186;-89
2022/08/16 04:41:16;;;;;;;2.93;2.10;;;;;;;;;;5012718;28;20225;-89
2022/08/16 04:44:20;;;;;;;3.30;1.90;;;;;;;;;;5001613;28;20174;-89
2022/08/16 04:47:28;;;;;;;4.53;2.10;;;;;;;;;;5026483;28;20204;-89
2022/08/16 04:50:32;;;;;;;3.23;2.13;;;;;;;;;;4985332;28;20210;-89
2022/08/16 04:53:44;;;;;;;2.50;2.30;;;;;;;;;;4986643;28;20214;-89
2022/08/16 04:56:48;;;;;;;3.07;1.93;;;;;;;;;;4998306;28;20183;-89
2022/08/16 04:59:53;;;;;;;2.30;2.00;;;;;;;;;;4985643;28;20186;-89
2022/08/16 05:03:00;;;;;;;2.23;1.93;;;;;;;;;;4985102;28;20205;-89
2022/08/16 05:06:05;;;;;;;2.67;2.23;;;;;;;;;;4985590;28;20182;-90
2022/08/16 05:09:10;;;;;;;2.03;1.80;;;;;;;;;;4985594;28;20174;-89
2022/08/16 05:12:15;;;;;;;2.10;1.90;;;;;;;;;;4996751;28;20218;-89
2022/08/16 05:15:22;;;;;;;3.60;1.73;;;;;;;;;;4996502;28;20178;-90
2022/08/16 05:18:27;;;;;;;3.20;2.10;;;;;;;;;;4984948;28;20175;-89
2022/08/16 05:21:34;;;;;;;1.80;1.70;;;;;;;;;;4984961;28;20218;-89
2022/08/16 08:09:56;;;;;;;2.47;1.83;;;;;;;;;;5031842;22;20232;-77
2022/08/16 08:13:01;;;;;;;4.73;1.97;;;;;;;;;;4953925;29;20632;-74
2022/08/16 08:16:06;;;;;;;2.97;2.00;;;;;;;;;;4965166;28;20519;-75
2022/08/16 08:19:11;;;;;;;2.00;1.80;;;;;;;;;;4969547;28;20205;-77
2022/08/16 08:22:18;;;;;;;3.45;1.90;;;;;;;;;;4981563;28;20218;-77
2022/08/16 08:25:26;;;;;;;3.30;1.77;;;;;;;;;;4996994;28;20174;-75
2022/08/16 08:28:31;;;;;;;2.75;2.03;;;;;;;;;;4985565;28;20204;-77
2022/08/16 08:31:41;;;;;;;3.20;1.70;;;;;;;;;;4985450;28;20215;-75
2022/08/16 08:34:47;;;;;;;4.63;1.75;;;;;;;;;;4996599;28;20219;-75
2022/08/16 08:37:52;;;;;;;2.72;1.83;;;;;;;;;;4997345;28;20664;-77
2022/08/16 08:40:56;;;;;;;3.38;1.80;;;;;;;;;;4974111;28;20222;-74
2022/08/16 08:44:00;;;;;;;3.95;1.77;;;;;;;;;;4996329;28;20181;-75
2022/08/16 08:47:05;;;;;;;3.97;2.22;;;;;;;;;;4996688;28;20189;-75
2022/08/16 08:50:13;;;;;;;4.15;1.83;;;;;;;;;;4974667;28;20206;-75
2022/08/16 08:53:18;;;;;;;2.53;1.40;;;;;;;;;;4957255;29;20210;-75
2022/08/16 08:56:22;;;;;;;7.43;2.05;;;;;;;;;;4968138;28;20199;-75
2022/08/16 08:59:26;;;;;;;4.47;1.63;;;;;;;;;;4965554;28;20207;-75
2022/08/16 09:02:32;;;;;;;3.33;2.15;;;;;;;;;;4976786;28;20674;-75
2022/08/16 09:05:36;;;;;;;4.47;2.05;;;;;;;;;;4977324;28;20179;-75
2022/08/16 09:08:42;;;;;;;3.63;2.10;;;;;;;;;;4976498;28;20641;-75
2022/08/16 09:11:50;;;;;;;2.40;1.67;;;;;;;;;;4976502;28;20223;-75
2022/08/16 09:14:55;;;;;;;3.80;1.98;;;;;;;;;;4987541;28;20226;-75
2022/08/16 09:18:03;;;;;;;3.63;1.70;;;;;;;;;;4976532;28;20658;-76
2022/08/16 09:21:07;;;;;;;2.20;1.75;;;;;;;;;;4985253;28;20222;-75
2022/08/16 09:24:17;;;;;;;3.40;2.00;;;;;;;;;;4964450;28;20199;-75
2022/08/16 09:27:23;;;;;;;2.72;1.77;;;;;;;;;;4963857;28;20654;-75
2022/08/16 09:30:27;;;;;;;6.45;1.83;;;;;;;;;;4972587;28;20187;-75
2022/08/16 09:33:32;;;;;;;3.95;1.73;;;;;;;;;;4973065;28;20183;-75
2022/08/16 09:36:36;;;;;;;2.53;1.85;;;;;;;;;;4974800;28;20207;-75
2022/08/16 09:39:41;;;;;;;2.65;1.88;;;;;;;;;;4973719;28;20206;-75
2022/08/16 09:42:46;;;;;;;3.03;1.80;;;;;;;;;;4974415;28;20662;-75
2022/08/16 09:45:51;;;;;;;3.53;1.70;;;;;;;;;;4984020;28;20542;-75
2022/08/16 09:48:57;;;;;;;42.33;3.30;;;;;;;;;;4973671;28;20187;-75
2022/08/16 09:52:01;;;;;;;2.28;1.80;;;;;;;;;;4975357;28;20222;-75
2022/08/16 09:55:11;;;;;;;2.25;1.88;;;;;;;;;;4975222;28;20211;-75
2022/08/16 09:58:26;;;;;;;2.85;1.80;;;;;;;;;;4973874;28;20187;-75
2022/08/16 10:01:30;;;;;;;4.00;1.83;;;;;;;;;;4973749;28;20227;-75
2022/08/16 10:04:34;;;;;;;3.50;1.90;;;;;;;;;;4967219;28;20192;-75
2022/08/16 10:07:39;;;;;;;3.03;1.90;;;;;;;;;;4967676;28;20180;-75
2022/08/16 10:13:10;;;;;;;5.07;2.08;;;;;;;;;;4966923;28;20219;-75
2022/08/16 10:14:08;;;;;;;3.90;2.03;;;;;;;;;;4957176;29;20231;-75
2022/08/16 10:17:12;;;;;;;4.65;2.03;;;;;;;;;;4956768;29;20534;-74
2022/08/16 10:20:16;;;;;;;8.55;1.92;;;;;;;;;;4956310;29;20180;-75
2022/08/16 10:23:20;;;;;;;6.05;1.90;;;;;;;;;;4956806;29;20204;-74
2022/08/16 10:26:25;;;;;;;5.55;1.80;;;;;;;;;;4968828;28;20197;-74
2022/08/16 10:29:29;;;;;;;3.55;1.70;;;;;;;;;;4986979;28;20194;-75
2022/08/16 10:32:33;;;;;;;6.93;1.70;;;;;;;;;;4995142;28;20214;-75
2022/08/16 10:35:38;;;;;;;3.15;2.00;;;;;;;;;;4995340;28;20210;-75
2022/08/16 10:38:43;;;;;;;2.10;1.90;;;;;;;;;;4995933;28;20186;-77
2022/08/16 10:41:47;;;;;;;16.50;2.20;;;;;;;;;;4994236;28;20213;-75
2022/08/16 10:44:51;;;;;;;8.30;2.28;;;;;;;;;;4983108;28;20186;-75
2022/08/16 10:47:56;;;;;;;3.38;1.88;;;;;;;;;;4994269;28;20186;-75
2022/08/16 10:51:00;;;;;;;4.53;2.00;;;;;;;;;;4994512;28;20677;-77
2022/08/16 10:54:05;;;;;;;2.60;1.80;;;;;;;;;;4994505;28;20179;-77
2022/08/16 10:57:09;;;;;;;12.23;2.25;;;;;;;;;;4994107;28;20202;-77
2022/08/16 11:00:16;;;;;;;2.22;1.90;;;;;;;;;;4983325;28;20538;-76
2022/08/16 11:03:20;;;;;;;3.05;1.50;;;;;;;;;;4993652;28;20182;-76
2022/08/16 11:06:24;;;;;;;4.97;2.10;;;;;;;;;;4994212;28;20182;-76
2022/08/16 11:09:28;;;;;;;3.13;1.70;;;;;;;;;;4994420;28;20684;-77
2022/08/16 11:12:32;;;;;;;2.42;1.73;;;;;;;;;;5005659;28;20214;-77
2022/08/16 11:15:37;;;;;;;5.93;1.85;;;;;;;;;;4993578;28;20226;-76
2022/08/16 11:18:43;;;;;;;47.58;3.90;;;;;;;;;;4993939;28;20174;-76
2022/08/16 11:21:47;;;;;;;4.57;2.10;;;;;;;;;;4993543;28;20214;-75
2022/08/16 11:24:51;;;;;;;6.20;1.90;;;;;;;;;;4994392;28;20182;-76
2022/08/16 11:27:57;;;;;;;3.33;2.00;;;;;;;;;;4994460;28;20516;-79
2022/08/16 11:31:02;;;;;;;3.00;1.80;;;;;;;;;;4987301;28;20210;-79
2022/08/16 11:34:06;;;;;;;17.85;2.60;;;;;;;;;;4999052;28;20178;-79
2022/08/16 11:37:10;;;;;;;4.57;1.73;;;;;;;;;;4998486;28;20182;-79
2022/08/16 11:40:15;;;;;;;22.23;3.17;;;;;;;;;;4998005;28;20183;-79
2022/08/16 11:43:23;;;;;;;2.42;1.77;;;;;;;;;;4985935;28;20210;-79
2022/08/16 11:46:27;;;;;;;7.22;2.42;;;;;;;;;;4977449;28;20203;-78
2022/08/16 11:49:31;;;;;;;7.00;1.83;;;;;;;;;;5001691;28;20195;-79
2022/08/16 11:52:36;;;;;;;2.42;1.50;;;;;;;;;;4960570;29;20222;-80
2022/08/16 11:55:40;;;;;;;3.15;1.60;;;;;;;;;;4947964;29;20211;-79
2022/08/16 11:58:45;;;;;;;2.47;1.98;;;;;;;;;;4979646;28;20183;-79
2022/08/16 12:01:49;;;;;;;8.15;2.58;;;;;;;;;;4959706;29;20326;-79
2022/08/16 12:04:53;;;;;;;4.05;1.70;;;;;;;;;;4974080;28;20180;-79
2022/08/16 12:07:57;;;;;;;3.60;1.92;;;;;;;;;;4961367;29;20199;-79
2022/08/16 12:11:04;;;;;;;96.80;6.57;;;;;;;;;;4961088;29;20223;-79
2022/08/16 12:14:08;;;;;;;16.23;2.55;;;;;;;;;;4971206;28;20203;-79
2022/08/16 12:17:13;;;;;;;3.45;1.90;;;;;;;;;;4970146;28;20180;-78
2022/08/16 12:20:21;;;;;;;3.47;1.60;;;;;;;;;;4977556;28;20198;-79
2022/08/16 12:23:25;;;;;;;3.53;2.13;;;;;;;;;;4972380;28;20194;-79
2022/08/16 12:26:30;;;;;;;4.47;1.77;;;;;;;;;;4981068;28;20198;-79
2022/08/16 12:29:34;;;;;;;1.75;1.65;;;;;;;;;;4967979;28;20187;-79
2022/08/16 12:32:39;;;;;;;5.13;1.60;;;;;;;;;;4967367;28;20203;-78
2022/08/16 12:35:46;;;;;;;3.28;1.90;;;;;;;;;;4981960;28;20215;-79
2022/08/16 12:38:51;;;;;;;3.10;1.90;;;;;;;;;;4982375;28;20183;-79
2022/08/16 12:41:56;;;;;;;1.90;1.48;;;;;;;;;;4979138;28;20219;-79
2022/08/16 12:45:01;;;;;;;5.25;2.05;;;;;;;;;;4977896;28;20171;-79
2022/08/16 12:51:37;;;;;;;6.47;1.85;;;;;;;;;;4981297;28;20222;-79
2022/08/16 12:54:42;;;;;;;4.43;1.95;;;;;;;;;;4979860;28;20187;-81
2022/08/16 12:57:46;;;;;;;3.40;1.80;;;;;;;;;;4976651;28;20187;-79
2022/08/16 13:00:50;;;;;;;3.85;1.70;;;;;;;;;;4974747;28;20222;-77
2022/08/16 13:03:57;;;;;;;3.80;1.90;;;;;;;;;;4973378;28;20639;-77
2022/08/16 13:07:03;;;;;;;3.40;1.92;;;;;;;;;;4974892;28;20519;-77
2022/08/16 13:10:12;;;;;;;35.05;3.10;;;;;;;;;;4978255;28;20202;-77
2022/08/16 13:13:25;;;;;;;3.75;2.03;;;;;;;;;;4980582;28;20184;-77
2022/08/16 13:16:29;;;;;;;2.28;1.77;;;;;;;;;;4968167;28;20215;-77
2022/08/16 13:19:35;;;;;;;2.97;1.90;;;;;;;;;;4968178;28;20658;-77
2022/08/16 13:22:44;;;;;;;4.03;2.00;;;;;;;;;;4970073;28;20515;-77
2022/08/16 13:25:49;;;;;;;5.88;2.00;;;;;;;;;;4978231;28;20176;-77
2022/08/16 13:28:53;;;;;;;2.38;1.60;;;;;;;;;;4967077;28;20187;-77
2022/08/16 13:31:57;;;;;;;3.65;2.10;;;;;;;;;;4978456;28;20223;-77
2022/08/16 13:35:02;;;;;;;5.75;1.98;;;;;;;;;;4955183;28;20222;-79
2022/08/16 13:38:06;;;;;;;4.10;1.80;;;;;;;;;;4978458;28;20187;-77
2022/08/16 13:41:11;;;;;;;3.17;1.90;;;;;;;;;;4978352;28;20585;-76
2022/08/16 13:44:17;;;;;;;3.08;2.05;;;;;;;;;;4965338;28;20179;-76
2022/08/16 13:47:21;;;;;;;7.13;1.90;;;;;;;;;;4977440;28;20176;-77
2022/08/16 13:50:26;;;;;;;2.85;1.90;;;;;;;;;;4976288;28;20529;-77
2022/08/16 13:53:31;;;;;;;5.75;1.85;;;;;;;;;;4977079;28;20183;-77
2022/08/16 13:56:36;;;;;;;3.97;1.67;;;;;;;;;;4976516;28;20677;-77
2022/08/16 13:59:42;;;;;;;2.80;1.83;;;;;;;;;;4975633;28;20187;-77
2022/08/16 14:02:47;;;;;;;3.22;1.83;;;;;;;;;;4976036;28;20184;-76
2022/08/16 14:05:51;;;;;;;3.38;1.85;;;;;;;;;;4976786;28;20175;-77
2022/08/16 14:08:55;;;;;;;4.03;2.00;;;;;;;;;;5047776;22;20238;-85
2022/08/16 14:12:01;;;;;;;5.88;2.15;;;;;;;;;;4985125;28;20206;-85
2022/08/16 14:15:09;;;;;;;3.70;1.92;;;;;;;;;;4973705;28;20194;-86
2022/08/16 14:18:14;;;;;;;7.63;2.15;;;;;;;;;;4974579;28;20190;-85
2022/08/16 14:21:19;;;;;;;12.95;2.33;;;;;;;;;;4965262;28;20527;-85
2022/08/16 14:24:23;;;;;;;3.83;1.80;;;;;;;;;;4966308;28;20183;-85
2022/08/16 14:27:29;;;;;;;5.90;1.95;;;;;;;;;;4965893;28;20179;-86
2022/08/16 14:30:33;;;;;;;2.03;1.83;;;;;;;;;;4965622;28;20555;-85
2022/08/16 14:33:37;;;;;;;4.40;1.83;;;;;;;;;;4965383;28;20199;-85
2022/08/16 14:36:42;;;;;;;4.22;2.20;;;;;;;;;;4954483;28;20227;-86
2022/08/16 14:39:46;;;;;;;8.60;2.10;;;;;;;;;;4965120;28;20689;-86
2022/08/16 14:42:51;;;;;;;13.80;2.70;;;;;;;;;;4965060;28;20183;-86
2022/08/16 14:45:55;;;;;;;4.85;1.60;;;;;;;;;;4954475;28;20179;-86
2022/08/16 14:48:59;;;;;;;5.68;1.67;;;;;;;;;;4964923;28;20218;-88
2022/08/16 14:52:09;;;;;;;7.55;2.00;;;;;;;;;;4953791;28;20187;-86
2022/08/16 14:55:13;;;;;;;4.60;1.90;;;;;;;;;;4954683;28;20187;-86
2022/08/16 14:58:18;;;;;;;7.35;2.25;;;;;;;;;;4964881;28;20183;-86
2022/08/16 15:01:22;;;;;;;3.50;1.70;;;;;;;;;;4976198;28;20520;-86
2022/08/16 15:04:28;;;;;;;3.50;1.73;;;;;;;;;;4964528;28;20207;-86
2022/08/16 15:07:35;;;;;;;3.88;1.85;;;;;;;;;;4975347;28;20175;-88
2022/08/16 15:10:40;;;;;;;10.68;2.97;;;;;;;;;;4976030;28;20235;-86
2022/08/16 15:13:43;;;;;;;4.07;1.70;;;;;;;;;;4954630;28;20203;-86
2022/08/16 15:16:48;;;;;;;5.20;2.10;;;;;;;;;;4964945;28;20226;-86
2022/08/16 15:19:53;;;;;;;4.88;2.10;;;;;;;;;;4953597;28;20218;-86
2022/08/16 15:22:59;;;;;;;4.85;1.90;;;;;;;;;;4964566;28;20182;-86
2022/08/16 15:26:03;;;;;;;4.60;2.13;;;;;;;;;;4965102;28;20184;-86
2022/08/16 15:29:08;;;;;;;4.47;1.90;;;;;;;;;;4964683;28;20693;-86
2022/08/16 15:32:13;;;;;;;2.22;1.60;;;;;;;;;;4952867;28;20207;-86
2022/08/16 15:35:17;;;;;;;3.72;1.95;;;;;;;;;;4953148;28;20198;-86
2022/08/16 15:38:21;;;;;;;5.72;2.00;;;;;;;;;;4953122;28;20180;-86
2022/08/16 15:41:37;;;;;;;14.40;3.30;;;;;;;;;;4953577;28;20178;-86
2022/08/16 15:44:42;;;;;;;4.50;2.00;;;;;;;;;;4963776;28;20180;-86
2022/08/16 15:47:47;;;;;;;26.95;3.28;;;;;;;;;;4964175;28;20198;-86
2022/08/16 15:50:51;;;;;;;5.47;2.20;;;;;;;;;;4952975;28;20686;-86
2022/08/16 15:53:55;;;;;;;4.40;2.08;;;;;;;;;;4964644;28;20206;-86
2022/08/16 15:56:59;;;;;;;2.72;1.80;;;;;;;;;;4976077;28;20222;-87
2022/08/16 16:00:07;;;;;;;8.05;2.22;;;;;;;;;;4964140;28;20219;-86
2022/08/16 16:03:19;;;;;;;9.90;2.60;;;;;;;;;;4964425;28;20518;-85
2022/08/16 16:06:23;;;;;;;2.40;1.75;;;;;;;;;;4953924;28;20199;-86
2022/08/16 16:09:28;;;;;;;29.77;3.55;;;;;;;;;;4953512;28;20227;-85
2022/08/16 16:12:32;;;;;;;5.03;1.98;;;;;;;;;;4964521;28;20547;-85
2022/08/16 16:15:43;;;;;;;2.05;1.85;;;;;;;;;;4964704;28;20187;-86
2022/08/16 16:18:48;;;;;;;2.67;1.60;;;;;;;;;;4965907;28;20227;-86
2022/08/16 16:21:52;;;;;;;3.40;2.03;;;;;;;;;;4953957;28;20221;-86
2022/08/16 16:24:56;;;;;;;2.92;1.95;;;;;;;;;;4953511;28;20178;-85
2022/08/16 16:28:00;;;;;;;9.32;2.10;;;;;;;;;;4963768;28;20542;-85
2022/08/16 16:31:07;;;;;;;5.15;2.28;;;;;;;;;;4952840;28;20187;-85
2022/08/16 16:34:12;;;;;;;3.65;1.98;;;;;;;;;;4963580;28;20633;-85
2022/08/16 16:37:16;;;;;;;4.20;2.15;;;;;;;;;;4974284;28;20214;-86
2022/08/16 16:40:22;;;;;;;4.35;2.13;;;;;;;;;;4963951;28;20226;-85
2022/08/16 16:43:27;;;;;;;4.68;2.53;;;;;;;;;;4965724;28;20209;-85
2022/08/16 16:46:34;;;;;;;7.35;2.40;;;;;;;;;;4958947;28;20275;-85
2022/08/16 16:49:38;;;;;;;5.13;2.00;;;;;;;;;;4970679;28;20217;-85
2022/08/16 16:52:43;;;;;;;4.45;2.13;;;;;;;;;;4958591;28;20181;-86
2022/08/16 16:55:49;;;;;;;5.18;2.40;;;;;;;;;;4968486;28;20183;-85
2022/08/16 16:58:57;;;;;;;4.82;2.35;;;;;;;;;;4980284;28;20220;-89
2022/08/16 17:02:02;;;;;;;7.60;2.45;;;;;;;;;;4980075;28;20190;-84
2022/08/16 17:05:07;;;;;;;6.57;2.13;;;;;;;;;;4957009;28;20536;-84
2022/08/16 17:08:11;;;;;;;6.63;2.53;;;;;;;;;;4968112;28;20178;-84
2022/08/16 17:11:15;;;;;;;4.65;2.00;;;;;;;;;;4968987;28;20189;-85
2022/08/16 17:14:19;;;;;;;4.85;2.08;;;;;;;;;;4957011;28;20189;-84
2022/08/16 17:17:24;;;;;;;3.50;1.90;;;;;;;;;;4956430;28;20214;-84
2022/08/16 17:20:28;;;;;;;4.05;2.40;;;;;;;;;;4966999;28;20220;-83
2022/08/16 17:23:33;;;;;;;3.80;2.10;;;;;;;;;;4967192;28;20182;-83
2022/08/16 17:26:37;;;;;;;5.35;2.25;;;;;;;;;;4967627;28;20183;-83
2022/08/16 17:29:42;;;;;;;5.07;2.58;;;;;;;;;;4968634;28;20220;-83
2022/08/16 17:32:56;;;;;;;5.47;2.13;;;;;;;;;;4968009;28;20185;-83
2022/08/16 17:36:00;;;;;;;3.88;1.88;;;;;;;;;;4967069;28;20186;-83
2022/08/16 17:39:06;;;;;;;5.22;2.22;;;;;;;;;;4977905;28;20212;-83
2022/08/16 17:42:15;;;;;;;4.45;2.00;;;;;;;;;;4977496;28;20183;-83
2022/08/16 17:45:21;;;;;;;3.45;1.90;;;;;;;;;;4967688;28;20188;-84
2022/08/16 17:48:26;;;;;;;3.25;2.22;;;;;;;;;;4982121;28;20186;-85
2022/08/16 17:51:32;;;;;;;6.07;2.50;;;;;;;;;;4957776;28;20186;-83
2022/08/16 17:54:36;;;;;;;3.83;1.92;;;;;;;;;;4957325;28;20184;-83
2022/08/16 17:57:40;;;;;;;2.50;1.92;;;;;;;;;;4957883;28;20218;-83
2022/08/16 18:00:45;;;;;;;4.85;2.00;;;;;;;;;;4987285;28;20218;-84
2022/08/16 18:03:49;;;;;;;3.65;2.10;;;;;;;;;;4988068;28;20183;-83
2022/08/16 18:06:54;;;;;;;4.00;2.47;;;;;;;;;;4986692;28;20179;-85
2022/08/16 18:09:58;;;;;;;5.35;2.45;;;;;;;;;;4974479;28;20231;-84
2022/08/16 18:13:03;;;;;;;3.10;2.35;;;;;;;;;;4962880;28;20190;-83
2022/08/16 18:16:07;;;;;;;4.03;2.03;;;;;;;;;;4973732;28;20185;-83
2022/08/16 18:19:11;;;;;;;3.70;2.00;;;;;;;;;;4961792;28;20224;-83
2022/08/16 18:22:25;;;;;;;2.37;2.00;;;;;;;;;;4961810;28;20190;-84
2022/08/16 18:25:29;;;;;;;3.57;2.23;;;;;;;;;;4984917;28;20181;-83
2022/08/16 18:28:36;;;;;;;2.37;2.00;;;;;;;;;;4969708;28;20195;-84
2022/08/16 18:31:41;;;;;;;5.33;2.83;;;;;;;;;;4993960;28;20198;-83
2022/08/16 18:34:45;;;;;;;3.03;2.37;;;;;;;;;;4960549;28;20206;-83
2022/08/16 18:37:49;;;;;;;3.97;2.43;;;;;;;;;;4959402;28;20227;-84
2022/08/16 18:40:53;;;;;;;3.17;2.60;;;;;;;;;;4968882;28;20219;-83
2022/08/16 18:43:57;;;;;;;3.27;2.60;;;;;;;;;;4968534;28;20185;-83
2022/08/16 18:47:01;;;;;;;3.90;2.47;;;;;;;;;;4958006;28;20182;-84
2022/08/16 18:50:06;;;;;;;3.30;2.60;;;;;;;;;;4967757;28;20220;-83
2022/08/16 18:53:12;;;;;;;4.50;2.53;;;;;;;;;;4984182;28;20521;-83
2022/08/16 18:56:16;;;;;;;4.17;2.80;;;;;;;;;;4966802;28;20639;-83
2022/08/16 18:59:21;;;;;;;4.60;2.37;;;;;;;;;;4955876;28;20223;-84
2022/08/16 19:02:25;;;;;;;4.27;2.60;;;;;;;;;;4966525;28;20260;-83
2022/08/16 19:05:32;;;;;;;2.90;2.20;;;;;;;;;;4955391;28;20179;-83
2022/08/16 19:08:37;;;;;;;3.40;2.40;;;;;;;;;;4965183;28;20176;-84
2022/08/16 19:11:41;;;;;;;3.57;2.30;;;;;;;;;;4969615;28;20179;-83
2022/08/16 19:14:46;;;;;;;2.83;2.50;;;;;;;;;;4956800;28;20182;-83
2022/08/16 19:17:51;;;;;;;7.40;2.73;;;;;;;;;;4968114;28;20211;-84
2022/08/16 19:20:58;;;;;;;3.20;2.30;;;;;;;;;;4959190;28;20195;-83
2022/08/16 19:24:02;;;;;;;9.27;2.53;;;;;;;;;;4955081;28;20183;-84
2022/08/16 19:27:08;;;;;;;4.93;2.50;;;;;;;;;;4965543;28;20187;-83
2022/08/16 19:30:13;;;;;;;4.77;2.67;;;;;;;;;;4976249;28;20559;-84
2022/08/16 19:33:17;;;;;;;4.20;2.90;;;;;;;;;;4978924;28;20182;-83
2022/08/16 19:36:29;;;;;;;4.67;2.70;;;;;;;;;;4966146;28;20179;-83
2022/08/16 19:39:35;;;;;;;3.80;2.50;;;;;;;;;;4954787;28;20226;-83
2022/08/16 19:42:44;;;;;;;3.10;2.33;;;;;;;;;;4955201;28;20187;-83
2022/08/16 19:45:50;;;;;;;6.10;2.70;;;;;;;;;;4977603;28;20523;-83
2022/08/16 19:48:55;;;;;;;6.50;2.30;;;;;;;;;;4955132;28;20210;-84
2022/08/16 19:52:27;;;;;;;3.77;2.67;;;;;;;;;;4955983;28;20175;-83
2022/08/16 19:55:31;;;;;;;3.07;2.70;;;;;;;;;;4965712;28;20187;-82
2022/08/16 19:58:35;;;;;;;5.70;2.83;;;;;;;;;;4968182;28;20222;-82
2022/08/16 20:01:41;;;;;;;5.67;2.93;;;;;;;;;;4957006;28;20182;-84
2022/08/16 20:04:46;;;;;;;2.73;2.53;;;;;;;;;;4978094;28;20190;-85
2022/08/16 20:07:50;;;;;;;4.40;2.80;;;;;;;;;;4967259;28;20183;-84
2022/08/16 20:10:54;;;;;;;5.10;2.80;;;;;;;;;;4967392;28;20210;-84
2022/08/16 20:13:58;;;;;;;5.70;2.33;;;;;;;;;;4956920;28;20183;-83
2022/08/16 20:17:03;;;;;;;5.57;2.50;;;;;;;;;;4965999;28;20215;-84
2022/08/16 20:20:07;;;;;;;3.67;2.70;;;;;;;;;;4966450;28;20214;-84
2022/08/16 20:23:14;;;;;;;2.40;2.20;;;;;;;;;;4968925;28;20547;-84
2022/08/16 20:26:22;;;;;;;6.50;2.80;;;;;;;;;;4991405;28;20183;-85
2022/08/16 20:29:26;;;;;;;4.03;2.20;;;;;;;;;;4969789;28;20218;-85
2022/08/16 20:32:32;;;;;;;4.63;2.43;;;;;;;;;;4980440;28;20187;-86
2022/08/16 20:35:36;;;;;;;5.57;2.33;;;;;;;;;;4980778;28;20183;-83
2022/08/16 20:38:44;;;;;;;3.50;2.63;;;;;;;;;;4970545;28;20206;-84
2022/08/16 20:41:49;;;;;;;3.27;2.57;;;;;;;;;;4960388;28;20630;-84
2022/08/16 20:44:54;;;;;;;5.60;2.70;;;;;;;;;;4971015;28;20666;-84
2022/08/16 20:47:58;;;;;;;73.07;6.27;;;;;;;;;;4959183;28;20543;-84
2022/08/16 20:51:02;;;;;;;26.60;4.67;;;;;;;;;;4982127;28;20175;-84
2022/08/16 20:54:07;;;;;;;12.47;2.90;;;;;;;;;;4970794;28;20186;-84
2022/08/16 20:57:12;;;;;;;9.20;3.03;;;;;;;;;;4957179;28;20187;-84
2022/08/16 21:00:17;;;;;;;5.60;3.00;;;;;;;;;;4967829;28;20222;-83
2022/08/16 21:03:21;;;;;;;4.67;2.60;;;;;;;;;;4978811;28;20203;-84
2022/08/16 21:06:26;;;;;;;6.73;2.90;;;;;;;;;;4967606;28;20202;-84
2022/08/16 21:09:32;;;;;;;5.83;3.03;;;;;;;;;;4978540;28;20214;-84
2022/08/16 21:13:03;;;;;;;7.03;3.10;;;;;;;;;;4967821;28;20183;-84
2022/08/16 21:16:08;;;;;;;6.17;2.93;;;;;;;;;;4968227;28;20178;-84
2022/08/16 21:19:12;;;;;;;4.83;2.90;;;;;;;;;;4968467;28;20226;-84
2022/08/16 21:22:19;;;;;;;6.60;3.07;;;;;;;;;;4980356;28;20191;-84